createdAt,value
2023-04-02T00:00:36.356Z,25.40
2023-04-02T00:06:02.011Z,29.50
2023-04-02T00:11:06.326Z,26.50
2023-04-02T00:16:13.807Z,22.30
2023-04-02T00:21:22.036Z,22.70
2023-04-02T00:26:43.684Z,26.60
2023-04-02T00:31:59.664Z,23.20
2023-04-02T00:37:03.971Z,28.50
2023-04-02T00:42:07.802Z,24.80
2023-04-02T00:47:25.596Z,29.60
2023-04-02T00:52:31.440Z,27.10
2023-04-02T00:57:35.343Z,31.80
2023-04-02T01:02:41.279Z,18.70
2023-04-02T01:08:08.282Z,18.80
2023-04-02T01:13:17.962Z,17.80
2023-04-02T01:18:57.298Z,16.50
2023-04-02T01:24:06.761Z,15.90
2023-04-02T01:29:19.573Z,18.70
2023-04-02T01:34:26.669Z,21.00
2023-04-02T01:40:08.788Z,22.10
2023-04-02T01:45:17.157Z,20.60
2023-04-02T01:50:34.188Z,23.90
2023-04-02T01:55:47.608Z,19.50
2023-04-02T02:00:57.222Z,19.00
2023-04-02T02:06:03.542Z,17.50
2023-04-02T02:11:09.294Z,14.50
2023-04-02T02:16:18.355Z,14.70
2023-04-02T02:22:11.579Z,14.30
2023-04-02T02:27:24.091Z,13.00
2023-04-02T02:32:33.604Z,12.00
2023-04-02T02:37:41.238Z,14.50
2023-04-02T02:42:52.090Z,11.70
2023-04-02T02:47:56.685Z,12.90
2023-04-02T02:53:04.738Z,11.70
2023-04-02T02:58:31.795Z,13.40
2023-04-02T03:03:53.941Z,15.50
2023-04-02T03:09:17.900Z,11.60
2023-04-02T03:14:44.894Z,9.70
2023-04-02T03:20:33.598Z,8.80
2023-04-02T03:25:44.691Z,10.70
2023-04-02T03:30:51.429Z,10.60
2023-04-02T03:36:03.358Z,10.80
2023-04-02T03:41:13.831Z,10.00
2023-04-02T03:46:24.918Z,9.80
2023-04-02T03:51:49.844Z,12.10
2023-04-02T03:56:54.832Z,9.50
2023-04-02T04:02:39.962Z,12.50
2023-04-02T04:12:49.411Z,10.80
2023-04-02T04:18:14.210Z,9.80
2023-04-02T04:23:37.269Z,13.30
2023-04-02T04:28:49.914Z,16.10
2023-04-02T04:34:03.545Z,15.00
2023-04-02T04:39:31.570Z,15.40
2023-04-02T04:44:52.382Z,21.10
2023-04-02T04:50:06.100Z,24.20
2023-04-02T04:55:37.962Z,20.80
2023-04-02T05:00:45.153Z,23.80
2023-04-02T05:05:49.622Z,23.70
2023-04-02T05:10:57.955Z,19.50
2023-04-02T05:16:41.131Z,22.10
2023-04-02T05:22:31.043Z,17.20
2023-04-02T05:27:38.291Z,20.30
2023-04-02T05:32:48.288Z,22.30
2023-04-02T05:37:52.624Z,13.30
2023-04-02T05:42:58.174Z,18.70
2023-04-02T05:48:06.299Z,15.10
2023-04-02T05:53:47.307Z,14.20
2023-04-02T05:58:56.815Z,16.40
2023-04-02T06:04:26.563Z,12.70
2023-04-02T06:09:56.205Z,9.60
2023-04-02T06:15:00.736Z,12.50
2023-04-02T06:20:07.484Z,8.90
2023-04-02T06:25:33.777Z,12.60
2023-04-02T06:30:40.057Z,8.10
2023-04-02T06:35:47.413Z,7.80
2023-04-02T06:41:13.634Z,8.80
2023-04-02T06:46:33.096Z,8.50
2023-04-02T06:51:44.880Z,5.80
2023-04-02T06:56:53.980Z,7.90
2023-04-02T07:02:13.061Z,6.20
2023-04-02T07:07:18.342Z,5.10
2023-04-02T07:12:25.729Z,6.30
2023-04-02T07:17:30.777Z,5.30
2023-04-02T07:22:34.960Z,11.30
2023-04-02T07:27:39.959Z,5.00
2023-04-02T07:32:43.773Z,6.20
2023-04-02T07:37:47.546Z,4.80
2023-04-02T07:42:51.317Z,5.30
2023-04-02T07:47:55.243Z,4.30
2023-04-02T07:52:59.080Z,4.50
2023-04-02T07:58:03.460Z,4.50
2023-04-02T08:03:07.518Z,5.40
2023-04-02T08:08:11.522Z,6.10
2023-04-02T08:13:16.649Z,5.80
2023-04-02T08:18:24.082Z,4.30
2023-04-02T08:23:28.404Z,4.80
2023-04-02T08:28:32.293Z,4.80
2023-04-02T08:33:36.225Z,3.50
2023-04-02T08:38:40.675Z,5.80
2023-04-02T08:44:07.481Z,4.00
2023-04-02T08:49:29.930Z,4.30
2023-04-02T08:54:47.273Z,3.90
2023-04-02T09:00:01.719Z,5.60
2023-04-02T09:05:08.321Z,4.90
2023-04-02T09:10:19.915Z,6.20
2023-04-02T09:15:31.456Z,5.50
2023-04-02T09:20:35.091Z,6.10
2023-04-02T09:25:51.206Z,5.00
2023-04-02T09:31:16.470Z,8.10
2023-04-02T09:36:38.688Z,6.90
2023-04-02T09:41:43.782Z,5.60
2023-04-02T09:47:00.734Z,5.90
2023-04-02T09:52:30.368Z,7.50
2023-04-02T09:57:34.262Z,8.00
2023-04-02T10:02:38.442Z,4.80
2023-04-02T10:07:48.978Z,4.60
2023-04-02T10:12:59.453Z,6.00
2023-04-02T10:18:13.007Z,8.00
2023-04-02T10:23:18.118Z,6.40
2023-04-02T10:28:43.636Z,6.70
2023-04-02T10:33:51.607Z,6.30
2023-04-02T10:39:12.439Z,11.90
2023-04-02T10:44:30.415Z,6.50
2023-04-02T10:49:50.450Z,8.00
2023-04-02T10:55:04.876Z,9.10
2023-04-02T11:35:06.673Z,5.50
2023-04-02T11:40:17.280Z,5.40
2023-04-02T11:46:08.744Z,3.90
2023-04-02T11:58:06.150Z,3.60
2023-04-02T12:10:23.040Z,4.90
2023-04-02T12:16:01.638Z,6.50
2023-04-02T12:21:18.772Z,7.40
2023-04-02T12:26:49.980Z,8.20
2023-04-02T12:32:04.495Z,5.00
2023-04-02T12:37:32.394Z,7.30
2023-04-02T12:42:46.865Z,7.50
2023-04-02T12:48:01.521Z,6.30
2023-04-02T12:53:29.745Z,6.30
2023-04-02T12:58:46.578Z,6.60
2023-04-02T13:04:10.947Z,7.90
2023-04-02T13:09:40.327Z,5.90
2023-04-02T13:14:46.861Z,6.40
2023-04-02T13:19:57.576Z,6.70
2023-04-02T13:25:03.219Z,5.40
2023-04-02T13:30:20.636Z,11.70
2023-04-02T13:35:29.677Z,7.20
2023-04-02T13:40:35.164Z,7.30
2023-04-02T13:45:45.828Z,10.90
2023-04-02T13:51:07.130Z,7.40
2023-04-02T13:56:31.305Z,7.70
2023-04-02T14:01:40.005Z,7.70
2023-04-02T14:07:13.078Z,6.40
2023-04-02T14:12:37.781Z,10.60
2023-04-02T14:18:07.757Z,10.80
2023-04-02T14:23:48.027Z,7.80
2023-04-02T14:29:13.668Z,8.10
2023-04-02T14:34:41.312Z,6.00
2023-04-02T14:40:04.671Z,8.90
2023-04-02T14:45:31.261Z,6.70
2023-04-02T14:50:40.858Z,6.80
2023-04-02T14:55:48.242Z,8.80
2023-04-02T15:01:39.547Z,8.10
2023-04-02T15:06:50.698Z,11.50
2023-04-02T15:11:58.872Z,10.30
2023-04-02T15:17:04.606Z,7.60
2023-04-02T15:22:24.509Z,7.30
2023-04-02T15:27:45.783Z,6.50
2023-04-02T15:32:57.188Z,7.50
2023-04-02T15:38:21.215Z,6.90
2023-04-02T15:43:32.721Z,6.90
2023-04-02T15:48:45.780Z,7.60
2023-04-02T15:59:38.393Z,11.10
2023-04-02T16:05:05.318Z,7.70
2023-04-02T16:10:41.284Z,5.10
2023-04-02T16:15:57.664Z,9.70
2023-04-02T16:21:10.195Z,10.60
2023-04-02T16:26:22.957Z,8.40
2023-04-02T16:31:58.204Z,9.70
2023-04-02T16:37:23.279Z,6.20
2023-04-02T16:42:48.506Z,7.40
2023-04-02T16:48:15.191Z,11.60
2023-04-02T16:53:54.509Z,9.10
2023-04-02T16:59:21.562Z,7.10
2023-04-02T17:04:50.345Z,9.10
2023-04-02T17:10:37.971Z,8.70
2023-04-02T17:16:11.991Z,12.90
2023-04-02T17:21:33.496Z,12.10
2023-04-02T17:26:58.054Z,13.10
2023-04-02T17:32:38.061Z,11.70
2023-04-02T17:38:13.900Z,12.30
2023-04-02T17:43:36.733Z,8.20
2023-04-02T17:48:50.084Z,6.70
2023-04-02T17:54:04.042Z,8.00
2023-04-02T17:59:35.243Z,8.00
2023-04-02T18:05:27.992Z,8.30
2023-04-02T18:11:17.452Z,9.80
2023-04-02T18:17:15.938Z,8.90
2023-04-02T18:22:50.042Z,11.50
2023-04-02T18:28:35.572Z,10.80
2023-04-02T18:34:23.180Z,7.40
2023-04-02T18:39:59.336Z,7.50
2023-04-02T18:45:31.473Z,10.10
2023-04-02T18:50:52.940Z,8.20
2023-04-02T18:56:11.441Z,9.20
2023-04-02T19:01:24.861Z,10.90
2023-04-02T19:07:13.952Z,8.40
2023-04-02T19:12:22.707Z,8.20
2023-04-02T19:17:43.709Z,11.00
2023-04-02T19:23:16.932Z,10.70
2023-04-02T19:29:06.201Z,9.20
2023-04-02T19:35:09.498Z,9.10
2023-04-02T19:40:40.885Z,8.60
2023-04-02T19:45:49.703Z,8.60
2023-04-02T19:50:56.144Z,11.60
2023-04-02T19:56:03.314Z,9.30
2023-04-02T20:01:17.212Z,8.60
2023-04-02T20:06:23.520Z,9.00
2023-04-02T20:11:33.841Z,9.40
2023-04-02T20:16:44.506Z,8.60
2023-04-02T20:21:54.884Z,10.00
2023-04-02T20:27:04.997Z,8.80
2023-04-02T20:32:12.020Z,8.60
2023-04-02T20:37:17.477Z,10.60
2023-04-02T20:42:25.795Z,5.60
2023-04-02T20:47:30.572Z,9.70
2023-04-02T20:52:36.128Z,7.50
2023-04-02T20:57:40.498Z,6.50
2023-04-02T21:02:46.297Z,6.20
2023-04-02T21:07:50.650Z,8.80
2023-04-02T21:12:56.119Z,4.70
2023-04-02T21:18:00.271Z,8.40
2023-04-02T21:23:05.136Z,9.80
2023-04-02T21:28:09.982Z,6.80
2023-04-02T21:33:18.719Z,10.60
2023-04-02T21:38:27.432Z,6.50
2023-04-02T21:43:31.357Z,10.90
2023-04-02T21:48:38.968Z,4.40
2023-04-02T21:53:51.155Z,9.20
2023-04-02T21:59:02.218Z,7.70
2023-04-02T22:04:09.961Z,7.00
2023-04-02T22:09:16.565Z,11.60
2023-04-02T22:14:20.607Z,14.00
2023-04-02T22:19:35.742Z,13.10
2023-04-02T22:24:51.543Z,17.20
2023-04-02T22:29:55.890Z,17.60
2023-04-02T22:35:02.185Z,9.50
2023-04-02T22:40:11.190Z,8.60
2023-04-02T22:45:18.896Z,13.60
2023-04-02T22:50:23.258Z,10.40
2023-04-02T22:55:27.467Z,13.40
2023-04-02T23:00:31.274Z,6.80
2023-04-02T23:05:35.197Z,10.60
2023-04-02T23:10:38.945Z,12.60
2023-04-02T23:15:44.954Z,12.80
2023-04-02T23:20:48.756Z,10.20
2023-04-02T23:26:12.610Z,13.30
2023-04-02T23:31:19.425Z,6.40
2023-04-02T23:36:25.587Z,10.00
2023-04-02T23:41:30.257Z,11.00
2023-04-02T23:46:34.517Z,10.50
2023-04-02T23:51:38.344Z,12.00
2023-04-02T23:56:42.512Z,10.10
